createdAt,value
2023-05-17T00:00:31.062Z,10.57
2023-05-17T00:02:58.094Z,11.37
2023-05-17T00:05:25.328Z,9.90
2023-05-17T00:07:52.331Z,9.30
2023-05-17T00:10:19.384Z,9.93
2023-05-17T00:12:46.433Z,8.70
2023-05-17T00:15:14.695Z,8.53
2023-05-17T00:17:41.771Z,9.53
2023-05-17T00:20:09.377Z,9.07
2023-05-17T00:22:36.620Z,8.93
2023-05-17T00:25:04.170Z,8.20
2023-05-17T00:27:31.141Z,8.73
2023-05-17T00:29:58.272Z,9.00
2023-05-17T00:32:25.477Z,9.57
2023-05-17T00:34:52.462Z,8.67
2023-05-17T00:37:19.473Z,8.60
2023-05-17T00:39:46.429Z,8.40
2023-05-17T00:42:14.381Z,8.30
2023-05-17T00:44:41.408Z,10.03
2023-05-17T00:47:08.533Z,8.83
2023-05-17T00:49:35.585Z,8.87
2023-05-17T00:52:02.605Z,8.23
2023-05-17T00:54:30.582Z,8.67
2023-05-17T00:56:59.508Z,8.73
2023-05-17T00:59:28.069Z,8.77
2023-05-17T01:01:56.065Z,9.17
2023-05-17T01:04:23.215Z,8.20
2023-05-17T01:06:50.600Z,7.83
2023-05-17T01:09:18.239Z,8.73
2023-05-17T01:12:08.926Z,9.07
2023-05-17T01:15:06.585Z,8.17
2023-05-17T01:17:40.886Z,8.33
2023-05-17T01:20:31.500Z,7.97
2023-05-17T01:23:11.488Z,8.73
2023-05-17T01:25:42.337Z,8.87
2023-05-17T01:28:12.029Z,8.57
2023-05-17T01:30:40.352Z,8.23
2023-05-17T01:33:07.786Z,8.07
2023-05-17T01:35:34.775Z,7.87
2023-05-17T01:38:01.925Z,8.53
2023-05-17T01:40:29.859Z,8.50
2023-05-17T01:43:04.957Z,8.47
2023-05-17T01:45:44.191Z,8.50
2023-05-17T01:48:40.228Z,8.20
2023-05-17T01:51:10.153Z,9.60
2023-05-17T01:53:48.188Z,8.93
2023-05-17T01:56:22.453Z,8.03
2023-05-17T01:58:52.105Z,10.23
2023-05-17T02:01:21.435Z,8.30
2023-05-17T02:03:50.001Z,9.27
2023-05-17T02:06:17.710Z,8.30
2023-05-17T02:08:44.656Z,8.23
2023-05-17T02:11:11.611Z,7.73
2023-05-17T02:13:38.538Z,8.23
2023-05-17T02:16:05.795Z,8.60
2023-05-17T02:18:35.509Z,8.03
2023-05-17T02:21:02.751Z,8.13
2023-05-17T02:23:29.777Z,8.70
2023-05-17T02:25:56.712Z,8.47
2023-05-17T02:28:23.649Z,8.17
2023-05-17T02:30:50.593Z,7.83
2023-05-17T02:33:17.598Z,7.47
2023-05-17T02:35:44.932Z,8.63
2023-05-17T02:38:11.844Z,8.30
2023-05-17T02:40:41.998Z,8.03
2023-05-17T02:43:08.943Z,7.97
2023-05-17T02:45:35.870Z,6.83
2023-05-17T02:48:03.119Z,9.80
2023-05-17T02:50:30.020Z,7.20
2023-05-17T02:52:57.426Z,7.10
2023-05-17T02:55:24.499Z,7.63
2023-05-17T02:57:51.525Z,6.93
2023-05-17T03:00:18.746Z,7.20
2023-05-17T03:02:55.790Z,8.87
2023-05-17T03:05:22.869Z,8.43
2023-05-17T03:07:49.821Z,7.47
2023-05-17T03:10:17.001Z,7.43
2023-05-17T03:12:43.963Z,7.33
2023-05-17T03:15:11.204Z,6.57
2023-05-17T03:17:38.270Z,6.97
2023-05-17T03:20:07.857Z,7.10
2023-05-17T03:22:34.932Z,6.87
2023-05-17T03:25:01.954Z,7.00
2023-05-17T03:27:30.937Z,6.70
2023-05-17T03:29:57.935Z,8.20
2023-05-17T03:32:25.145Z,6.40
2023-05-17T03:34:52.368Z,6.90
2023-05-17T03:37:19.531Z,6.33
2023-05-17T03:39:46.445Z,6.07
2023-05-17T03:42:13.445Z,6.97
2023-05-17T03:44:41.117Z,6.27
2023-05-17T03:47:08.070Z,5.80
2023-05-17T03:49:35.026Z,5.90
2023-05-17T03:52:02.128Z,6.03
2023-05-17T03:54:29.115Z,5.93
2023-05-17T03:56:56.156Z,5.47
2023-05-17T03:59:23.222Z,5.63
2023-05-17T04:01:50.607Z,6.07
2023-05-17T04:04:17.682Z,7.10
2023-05-17T04:06:44.809Z,6.00
2023-05-17T04:09:13.924Z,6.20
2023-05-17T04:11:41.822Z,5.90
2023-05-17T04:14:08.749Z,5.67
2023-05-17T04:16:35.693Z,5.47
2023-05-17T04:19:06.012Z,5.27
2023-05-17T04:21:33.100Z,5.43
2023-05-17T04:24:00.142Z,5.17
2023-05-17T04:26:27.436Z,5.50
2023-05-17T04:28:55.485Z,5.63
2023-05-17T04:31:22.759Z,6.27
2023-05-17T04:33:49.922Z,5.87
2023-05-17T04:36:17.673Z,5.83
2023-05-17T04:38:44.656Z,5.70
2023-05-17T04:41:11.745Z,5.63
2023-05-17T04:43:38.739Z,5.70
2023-05-17T04:46:06.125Z,5.70
2023-05-17T04:48:33.351Z,6.10
2023-05-17T04:51:07.408Z,5.43
2023-05-17T04:53:34.571Z,5.47
2023-05-17T04:56:02.300Z,5.60
2023-05-17T04:58:29.253Z,5.87
2023-05-17T05:00:56.334Z,5.67
2023-05-17T05:03:23.558Z,6.67
2023-05-17T05:05:51.043Z,5.30
2023-05-17T05:08:17.980Z,6.40
2023-05-17T05:10:45.091Z,5.87
2023-05-17T05:13:12.203Z,6.80
2023-05-17T05:15:39.161Z,6.47
2023-05-17T05:18:06.243Z,6.30
2023-05-17T05:20:33.308Z,8.90
2023-05-17T05:23:01.326Z,6.37
2023-05-17T05:25:28.624Z,6.77
2023-05-17T05:27:55.803Z,7.40
2023-05-17T05:30:22.942Z,5.90
2023-05-17T05:32:53.183Z,7.73
2023-05-17T05:35:20.589Z,6.37
2023-05-17T05:37:47.548Z,6.13
2023-05-17T05:40:15.200Z,7.90
2023-05-17T05:42:42.886Z,5.93
2023-05-17T05:45:10.759Z,4.20
2023-05-17T05:47:37.819Z,4.20
2023-05-17T05:50:06.158Z,5.10
2023-05-17T05:52:33.119Z,3.17
2023-05-17T05:55:00.486Z,5.63
2023-05-17T05:57:27.520Z,2.23
2023-05-17T05:59:54.469Z,2.90
2023-05-17T06:02:21.480Z,3.13
2023-05-17T06:04:48.628Z,4.43
2023-05-17T06:07:16.228Z,3.17
2023-05-17T06:09:45.830Z,5.20
2023-05-17T06:12:13.029Z,4.23
2023-05-17T06:14:40.084Z,4.00
2023-05-17T06:17:07.127Z,5.63
2023-05-17T06:19:34.234Z,3.53
2023-05-17T06:22:01.269Z,3.90
2023-05-17T06:24:28.231Z,4.37
2023-05-17T06:26:55.213Z,3.33
2023-05-17T06:29:22.350Z,4.80
2023-05-17T06:31:49.362Z,4.27
2023-05-17T06:34:16.325Z,3.57
2023-05-17T06:36:43.450Z,4.50
2023-05-17T06:39:11.120Z,3.20
2023-05-17T06:41:38.294Z,3.23
2023-05-17T06:44:05.845Z,3.90
2023-05-17T06:46:32.868Z,3.10
2023-05-17T06:48:59.976Z,3.00
2023-05-17T06:51:27.101Z,3.50
2023-05-17T06:53:54.085Z,3.60
2023-05-17T06:56:21.053Z,3.40
2023-05-17T06:58:48.144Z,4.07
2023-05-17T07:01:15.831Z,3.10
2023-05-17T07:03:43.468Z,4.13
2023-05-17T07:06:10.737Z,3.63
2023-05-17T07:08:40.488Z,5.17
2023-05-17T07:11:07.491Z,3.50
2023-05-17T07:13:34.458Z,3.30
2023-05-17T07:16:01.693Z,3.63
2023-05-17T07:18:28.916Z,3.30
2023-05-17T07:20:56.007Z,2.93
2023-05-17T07:23:22.943Z,3.93
2023-05-17T07:25:49.963Z,3.00
2023-05-17T07:28:16.978Z,4.20
2023-05-17T07:30:44.291Z,3.20
2023-05-17T07:33:11.627Z,3.50
2023-05-17T07:35:38.611Z,3.17
2023-05-17T07:38:05.589Z,3.57
2023-05-17T07:40:32.548Z,4.43
2023-05-17T07:42:59.485Z,4.10
2023-05-17T07:45:26.547Z,3.70
2023-05-17T07:47:53.652Z,4.17
2023-05-17T07:50:20.618Z,4.10
2023-05-17T07:52:48.344Z,5.63
2023-05-17T07:55:25.641Z,6.37
2023-05-17T07:57:52.678Z,6.20
2023-05-17T08:00:21.287Z,8.30
2023-05-17T08:02:49.495Z,7.50
2023-05-17T08:05:16.656Z,7.83
2023-05-17T08:07:43.605Z,6.93
2023-05-17T08:10:11.260Z,6.97
2023-05-17T08:12:38.343Z,7.70
2023-05-17T08:15:05.696Z,7.07
2023-05-17T08:17:32.810Z,6.43
2023-05-17T08:19:59.931Z,6.10
2023-05-17T08:22:27.525Z,6.63
2023-05-17T08:24:54.640Z,6.87
2023-05-17T08:27:21.662Z,6.97
2023-05-17T08:29:48.607Z,6.27
2023-05-17T08:32:15.636Z,8.93
2023-05-17T08:34:42.606Z,6.50
2023-05-17T08:37:10.074Z,4.27
2023-05-17T08:39:37.169Z,1.57
2023-05-17T08:42:08.009Z,1.30
2023-05-17T08:44:36.501Z,2.30
2023-05-17T08:47:04.472Z,2.50
2023-05-17T08:49:33.562Z,0.90
2023-05-17T08:52:03.406Z,0.50
2023-05-17T08:54:30.386Z,1.73
2023-05-17T08:57:00.696Z,0.77
2023-05-17T08:59:33.887Z,0.70
2023-05-17T09:02:01.715Z,0.80
2023-05-17T09:04:31.093Z,1.93
2023-05-17T09:06:58.992Z,3.30
2023-05-17T09:09:26.713Z,2.93
2023-05-17T09:11:53.747Z,1.40
2023-05-17T09:14:20.754Z,1.70
2023-05-17T09:16:48.451Z,1.97
2023-05-17T09:19:17.613Z,1.10
2023-05-17T09:21:48.020Z,1.50
2023-05-17T09:24:15.148Z,1.40
2023-05-17T09:26:44.660Z,1.30
2023-05-17T09:29:15.978Z,1.40
2023-05-17T09:31:44.022Z,1.20
2023-05-17T09:34:11.677Z,1.20
2023-05-17T09:36:42.832Z,1.20
2023-05-17T09:39:12.879Z,1.20
2023-05-17T09:41:47.943Z,2.30
2023-05-17T09:44:15.895Z,2.70
2023-05-17T09:46:48.540Z,1.70
2023-05-17T09:49:17.211Z,1.60
2023-05-17T09:51:46.828Z,2.10
2023-05-17T09:54:14.237Z,2.20
2023-05-17T09:56:41.429Z,2.60
2023-05-17T09:59:13.050Z,0.80
2023-05-17T10:01:43.304Z,1.10
2023-05-17T10:04:11.516Z,0.80
2023-05-17T10:06:49.571Z,1.70
2023-05-17T10:09:21.937Z,1.53
2023-05-17T10:11:51.011Z,0.93
2023-05-17T10:14:23.599Z,1.27
2023-05-17T10:16:52.248Z,0.13
2023-05-17T10:19:21.338Z,0.20
2023-05-17T10:21:50.616Z,0.13
2023-05-17T10:24:18.276Z,0.30
2023-05-17T10:26:45.567Z,1.13
2023-05-17T10:29:12.987Z,0.30
2023-05-17T10:31:43.506Z,0.37
2023-05-17T10:34:11.838Z,0.20
2023-05-17T10:36:41.388Z,0.10
2023-05-17T10:39:08.654Z,0.17
2023-05-17T10:41:38.501Z,0.37
2023-05-17T10:44:10.502Z,0.77
2023-05-17T10:46:37.674Z,0.10
2023-05-17T10:49:05.102Z,0.17
2023-05-17T10:51:37.931Z,0.20
2023-05-17T10:54:14.144Z,0.53
2023-05-17T10:56:47.068Z,0.20
2023-05-17T10:59:24.510Z,0.60
2023-05-17T11:01:59.859Z,0.40
2023-05-17T11:04:39.134Z,1.17
2023-05-17T11:07:29.304Z,0.57
2023-05-17T11:10:08.549Z,0.30
2023-05-17T11:12:44.221Z,0.40
2023-05-17T11:15:13.573Z,0.73
2023-05-17T11:17:44.110Z,0.73
2023-05-17T11:20:32.314Z,0.30
2023-05-17T11:23:05.077Z,0.77
2023-05-17T11:25:37.223Z,0.80
2023-05-17T11:28:10.150Z,0.20
2023-05-17T11:30:43.539Z,0.20
2023-05-17T11:33:24.958Z,0.47
2023-05-17T11:35:56.729Z,0.33
2023-05-17T11:38:30.432Z,0.10
2023-05-17T11:40:57.880Z,0.20
2023-05-17T11:43:27.382Z,0.23
2023-05-17T11:46:01.459Z,0.13
2023-05-17T11:48:30.756Z,0.20
2023-05-17T11:51:00.641Z,0.20
2023-05-17T11:53:31.795Z,0.30
2023-05-17T11:56:06.360Z,0.20
2023-05-17T11:58:33.878Z,0.80
2023-05-17T12:01:00.946Z,0.70
2023-05-17T12:03:29.865Z,0.33
2023-05-17T12:06:09.638Z,0.13
2023-05-17T12:08:38.571Z,0.20
2023-05-17T12:11:07.272Z,0.20
2023-05-17T12:13:35.839Z,1.03
2023-05-17T12:16:07.129Z,0.20
2023-05-17T12:18:45.416Z,0.17
2023-05-17T12:21:16.293Z,0.17
2023-05-17T12:23:46.318Z,0.37
2023-05-17T12:26:16.253Z,0.33
2023-05-17T12:28:57.788Z,0.43
2023-05-17T12:31:29.559Z,0.10
2023-05-17T12:33:59.266Z,0.23
2023-05-17T12:36:29.241Z,0.40
2023-05-17T12:38:56.847Z,0.50
2023-05-17T12:41:26.526Z,0.10
2023-05-17T12:44:06.151Z,0.67
2023-05-17T12:46:40.930Z,0.30
2023-05-17T12:49:12.320Z,0.60
2023-05-17T12:51:43.887Z,0.07
2023-05-17T12:54:12.550Z,0.17
2023-05-17T12:56:43.721Z,0.77
2023-05-17T12:59:11.009Z,0.17
2023-05-17T13:01:49.974Z,0.57
2023-05-17T13:04:19.013Z,0.70
2023-05-17T13:07:03.748Z,0.13
2023-05-17T13:09:32.452Z,0.20
2023-05-17T13:12:07.176Z,0.30
2023-05-17T13:14:37.553Z,0.20
2023-05-17T13:17:05.934Z,0.43
2023-05-17T13:19:33.609Z,2.00
2023-05-17T13:22:00.696Z,0.40
2023-05-17T13:24:28.263Z,1.20
2023-05-17T13:26:55.246Z,0.10
2023-05-17T13:29:35.340Z,0.10
2023-05-17T13:32:07.828Z,0.20
2023-05-17T13:34:35.186Z,3.97
2023-05-17T13:37:02.233Z,1.67
2023-05-17T13:39:29.284Z,0.63
2023-05-17T13:41:56.268Z,0.10
2023-05-17T13:44:23.256Z,1.37
2023-05-17T13:46:50.242Z,2.57
2023-05-17T13:49:17.646Z,0.23
2023-05-17T13:51:45.121Z,0.10
2023-05-17T13:54:12.696Z,0.10
2023-05-17T13:56:39.682Z,1.10
2023-05-17T13:59:06.593Z,0.17
2023-05-17T14:01:33.765Z,0.23
2023-05-17T14:04:01.122Z,0.93
2023-05-17T14:06:28.584Z,0.30
2023-05-17T14:08:57.711Z,0.17
2023-05-17T14:11:24.775Z,0.10
2023-05-17T14:13:51.912Z,0.20
2023-05-17T14:16:18.842Z,0.10
2023-05-17T14:18:46.753Z,0.40
2023-05-17T14:21:13.774Z,0.10
2023-05-17T14:23:40.804Z,0.20
2023-05-17T14:26:07.844Z,0.73
2023-05-17T14:28:39.188Z,0.57
2023-05-17T14:31:07.451Z,0.83
2023-05-17T14:33:34.930Z,0.10
2023-05-17T14:36:02.144Z,3.13
2023-05-17T14:38:29.125Z,0.77
2023-05-17T14:40:56.263Z,0.00
2023-05-17T14:43:23.824Z,0.93
2023-05-17T14:45:50.925Z,0.20
2023-05-17T14:48:17.985Z,0.73
2023-05-17T14:50:44.979Z,0.20
2023-05-17T14:53:12.010Z,0.40
2023-05-17T14:55:39.049Z,0.93
2023-05-17T14:58:06.513Z,0.50
2023-05-17T15:00:33.521Z,0.70
2023-05-17T15:03:00.642Z,0.60
2023-05-17T15:05:28.080Z,0.40
2023-05-17T15:07:55.259Z,0.20
2023-05-17T15:10:22.735Z,0.20
2023-05-17T15:12:49.882Z,1.30
2023-05-17T15:15:17.937Z,0.30
2023-05-17T15:17:44.900Z,0.20
2023-05-17T15:20:12.309Z,0.40
2023-05-17T15:22:39.483Z,1.40
2023-05-17T15:25:06.665Z,0.47
2023-05-17T15:27:33.733Z,0.50
2023-05-17T15:30:00.831Z,0.43
2023-05-17T15:32:27.865Z,1.37
2023-05-17T15:34:54.883Z,1.07
2023-05-17T15:37:21.810Z,0.87
2023-05-17T15:39:49.115Z,1.03
2023-05-17T15:42:16.370Z,1.40
2023-05-17T15:44:43.313Z,2.80
2023-05-17T15:47:10.295Z,0.40
2023-05-17T15:49:37.676Z,0.40
2023-05-17T15:52:04.933Z,0.50
2023-05-17T15:54:31.884Z,0.30
2023-05-17T15:56:58.881Z,0.67
2023-05-17T15:59:26.396Z,0.27
2023-05-17T16:01:53.296Z,1.07
2023-05-17T16:04:20.889Z,1.27
2023-05-17T16:06:47.962Z,1.57
2023-05-17T16:09:14.941Z,0.53
2023-05-17T16:11:42.280Z,0.40
2023-05-17T16:14:10.262Z,1.13
2023-05-17T16:16:37.196Z,0.77
2023-05-17T16:19:05.810Z,1.00
2023-05-17T16:21:32.817Z,0.30
2023-05-17T16:23:59.767Z,1.33
2023-05-17T16:26:27.716Z,0.33
2023-05-17T16:28:56.866Z,0.27
2023-05-17T16:31:23.970Z,1.50
2023-05-17T16:33:51.852Z,0.77
2023-05-17T16:36:19.081Z,0.90
2023-05-17T16:38:46.087Z,2.60
2023-05-17T16:41:13.061Z,0.60
2023-05-17T16:43:40.020Z,0.57
2023-05-17T16:46:07.134Z,0.40
2023-05-17T16:48:34.149Z,0.40
2023-05-17T16:51:01.120Z,1.17
2023-05-17T16:53:30.786Z,1.70
2023-05-17T16:55:57.851Z,1.03
2023-05-17T16:58:26.044Z,1.03
2023-05-17T17:00:53.090Z,0.80
2023-05-17T17:03:20.103Z,0.60
2023-05-17T17:05:47.144Z,1.13
2023-05-17T17:08:14.113Z,2.00
2023-05-17T17:10:41.218Z,1.33
2023-05-17T17:13:08.256Z,0.80
2023-05-17T17:15:35.238Z,0.73
2023-05-17T17:18:02.442Z,0.40
2023-05-17T17:20:29.629Z,0.40
2023-05-17T17:22:56.872Z,0.60
2023-05-17T17:25:24.822Z,0.47
2023-05-17T17:27:53.257Z,0.77
2023-05-17T17:30:20.468Z,0.53
2023-05-17T17:32:47.648Z,0.50
2023-05-17T17:35:14.709Z,3.07
2023-05-17T17:37:41.685Z,1.03
2023-05-17T17:40:09.159Z,0.50
2023-05-17T17:42:36.080Z,0.60
2023-05-17T17:45:03.192Z,0.40
2023-05-17T17:47:30.194Z,1.17
2023-05-17T17:49:57.233Z,1.07
2023-05-17T17:52:24.263Z,0.40
2023-05-17T17:54:51.332Z,0.50
2023-05-17T17:57:19.402Z,1.10
2023-05-17T17:59:46.343Z,0.50
2023-05-17T18:02:13.279Z,2.43
2023-05-17T18:04:40.931Z,0.90
2023-05-17T18:07:07.975Z,0.97
2023-05-17T18:09:34.952Z,2.30
2023-05-17T18:12:01.926Z,1.13
2023-05-17T18:14:28.908Z,0.77
2023-05-17T18:16:56.143Z,0.83
2023-05-17T18:19:23.291Z,1.23
2023-05-17T18:21:50.809Z,1.00
2023-05-17T18:24:18.379Z,0.77
2023-05-17T18:26:45.461Z,1.23
2023-05-17T18:29:12.623Z,0.80
2023-05-17T18:31:39.613Z,0.53
2023-05-17T18:34:06.591Z,0.40
2023-05-17T18:36:33.558Z,0.43
2023-05-17T18:39:00.991Z,0.43
2023-05-17T18:41:28.097Z,0.70
2023-05-17T18:43:55.937Z,0.43
2023-05-17T18:46:22.908Z,2.13
2023-05-17T18:48:49.894Z,1.20
2023-05-17T18:51:16.929Z,0.70
2023-05-17T18:53:44.430Z,0.40
2023-05-17T18:56:12.661Z,0.70
2023-05-17T18:58:39.722Z,1.33
2023-05-17T19:01:06.731Z,0.60
2023-05-17T19:03:33.777Z,1.97
2023-05-17T19:06:00.914Z,0.60
2023-05-17T19:08:27.894Z,2.80
2023-05-17T19:10:54.926Z,1.70
2023-05-17T19:13:21.888Z,3.33
2023-05-17T19:15:49.607Z,1.23
2023-05-17T19:18:16.700Z,2.80
2023-05-17T19:20:43.794Z,1.20
2023-05-17T19:23:10.851Z,0.67
2023-05-17T19:25:37.791Z,0.90
2023-05-17T19:28:04.955Z,0.40
2023-05-17T19:30:32.995Z,1.67
2023-05-17T19:33:00.297Z,2.13
2023-05-17T19:35:27.609Z,0.40
2023-05-17T19:37:56.963Z,2.80
2023-05-17T19:40:24.493Z,2.20
2023-05-17T19:42:51.512Z,3.63
2023-05-17T19:45:18.517Z,1.67
2023-05-17T19:47:45.632Z,0.97
2023-05-17T19:50:12.904Z,1.50
2023-05-17T19:52:40.446Z,1.23
2023-05-17T19:55:07.493Z,0.87
2023-05-17T19:57:34.497Z,1.17
2023-05-17T20:00:01.505Z,1.77
2023-05-17T20:02:28.621Z,1.87
2023-05-17T20:04:55.655Z,1.20
2023-05-17T20:07:25.913Z,1.20
2023-05-17T20:09:53.482Z,0.70
2023-05-17T20:12:20.616Z,2.13
2023-05-17T20:14:47.644Z,0.70
2023-05-17T20:17:14.671Z,2.97
2023-05-17T20:19:41.630Z,1.03
2023-05-17T20:22:08.712Z,1.60
2023-05-17T20:24:35.987Z,0.50
2023-05-17T20:27:03.200Z,0.70
2023-05-17T20:29:30.596Z,1.17
2023-05-17T20:31:59.176Z,1.30
2023-05-17T20:34:28.543Z,0.70
2023-05-17T20:36:58.763Z,1.50
2023-05-17T20:39:29.585Z,0.77
2023-05-17T20:41:58.230Z,0.87
2023-05-17T20:44:26.032Z,1.70
2023-05-17T20:46:56.880Z,0.60
2023-05-17T20:49:23.868Z,1.50
2023-05-17T20:51:51.151Z,3.40
2023-05-17T20:54:18.111Z,0.50
2023-05-17T20:56:45.205Z,0.80
2023-05-17T20:59:12.210Z,1.43
2023-05-17T21:01:39.784Z,3.27
2023-05-17T21:04:07.001Z,1.33
2023-05-17T21:06:34.341Z,5.07
2023-05-17T21:09:02.500Z,1.73
2023-05-17T21:11:30.014Z,2.87
2023-05-17T21:14:00.251Z,1.40
2023-05-17T21:16:27.807Z,1.37
2023-05-17T21:18:55.113Z,2.50
2023-05-17T21:21:22.233Z,1.20
2023-05-17T21:23:49.279Z,1.37
2023-05-17T21:26:16.243Z,0.77
2023-05-17T21:28:43.195Z,0.60
2023-05-17T21:31:10.242Z,0.53
2023-05-17T21:33:37.212Z,0.53
2023-05-17T21:36:04.408Z,1.80
2023-05-17T21:38:31.562Z,2.30
2023-05-17T21:40:58.523Z,1.53
2023-05-17T21:43:25.603Z,0.83
2023-05-17T21:45:52.610Z,0.40
2023-05-17T21:48:19.804Z,1.40
2023-05-17T21:50:46.872Z,0.90
2023-05-17T21:53:14.029Z,1.13
2023-05-17T21:55:56.129Z,0.53
2023-05-17T21:58:23.738Z,0.73
2023-05-17T22:00:50.687Z,1.27
2023-05-17T22:03:18.158Z,0.93
2023-05-17T22:05:45.231Z,0.90
2023-05-17T22:08:12.395Z,0.93
2023-05-17T22:10:40.489Z,0.53
2023-05-17T22:13:08.298Z,0.60
2023-05-17T22:15:35.679Z,0.40
2023-05-17T22:18:05.570Z,1.27
2023-05-17T22:20:33.300Z,0.40
2023-05-17T22:23:00.443Z,0.70
2023-05-17T22:25:27.351Z,0.63
2023-05-17T22:27:54.271Z,2.03
2023-05-17T22:30:21.666Z,1.43
2023-05-17T22:32:48.625Z,1.13
2023-05-17T22:35:15.897Z,2.07
2023-05-17T22:37:43.350Z,0.80
2023-05-17T22:40:11.055Z,0.60
2023-05-17T22:42:38.067Z,0.63
2023-05-17T22:45:05.364Z,1.27
2023-05-17T22:47:33.757Z,0.83
2023-05-17T22:50:00.913Z,0.70
2023-05-17T22:52:27.938Z,0.67
2023-05-17T22:54:54.950Z,1.17
2023-05-17T22:57:21.999Z,1.23
2023-05-17T22:59:48.939Z,1.97
2023-05-17T23:02:16.264Z,0.60
2023-05-17T23:04:45.914Z,1.00
2023-05-17T23:07:13.039Z,0.37
2023-05-17T23:09:40.776Z,1.37
2023-05-17T23:12:13.979Z,0.80
2023-05-17T23:14:41.416Z,1.23
2023-05-17T23:17:08.623Z,0.43
2023-05-17T23:19:36.065Z,1.57
2023-05-17T23:22:04.159Z,1.17
2023-05-17T23:24:31.564Z,1.23
2023-05-17T23:26:58.959Z,1.20
2023-05-17T23:29:26.256Z,1.13
2023-05-17T23:31:53.880Z,1.03
2023-05-17T23:34:22.062Z,1.30
2023-05-17T23:36:49.032Z,0.70
2023-05-17T23:39:16.031Z,0.40
2023-05-17T23:41:43.153Z,1.90
2023-05-17T23:44:10.432Z,0.83
2023-05-17T23:46:37.887Z,2.10
2023-05-17T23:49:05.887Z,2.23
2023-05-17T23:51:34.754Z,1.10
2023-05-17T23:54:01.872Z,0.63
2023-05-17T23:56:29.031Z,1.70
2023-05-17T23:58:56.013Z,1.13
